Terminal Aerodrome Forecast
Issued by NWS Wilmington, OH

Current Version | Previous Version | Graphics & Text | Print | Product List | Glossary On
Versions: 1 2 3 4 5 6 7 8 9 10 11 12 13 14 15 16 17 18 19 20 21 22 23
082
FTUS41 KILN 202336
TAFCVG
TAF
KCVG 202336Z 2100/2206 17007KT P6SM SCT250
     FM210600 20008KT P6SM SCT250 WS020/22035KT
     FM211400 21013G22KT P6SM BKN200
     FM212200 23009KT P6SM BKN150
     FM220500 30009KT P6SM BKN050=

USA.gov is the U.S. government's official web portal to all federal, state and local government web resources and services.